Time;durP1;ratioP1;P1;durP2;ratioP2;P2;SDS_P1;SDS_P2;PMS_P1;PMS_P2;Temp;Humidity;BMP_temperature;BMP_pressure;BME280_temperature;BME280_humidity;BME280_pressure;Samples;Min_cycle;Max_cycle;Signal;HPM_P1;HPM_P2
2021/05/07 00:02:01;;;;;;;12.20;11.07;;;9.00;99.90;;;;;;6166469;23;20421;-87
2021/05/07 00:04:33;;;;;;;13.67;12.27;;;9.00;99.90;;;;;;6191542;23;20448;-85
2021/05/07 00:07:02;;;;;;;13.37;12.17;;;9.00;99.90;;;;;;6167046;23;20440;-89
2021/05/07 00:09:51;;;;;;;12.40;11.20;;;9.10;99.90;;;;;;6169258;23;20472;-87
2021/05/07 00:12:27;;;;;;;13.10;11.93;;;9.00;99.90;;;;;;6169337;23;20491;-87
2021/05/07 00:14:59;;;;;;;14.60;13.20;;;9.10;99.90;;;;;;6167225;23;20414;-89
2021/05/07 00:17:40;;;;;;;14.70;13.40;;;9.10;99.90;;;;;;6168955;23;20412;-86
2021/05/07 00:20:27;;;;;;;14.93;13.50;;;9.00;99.90;;;;;;6170139;23;20445;-89
2021/05/07 00:23:34;;;;;;;15.20;13.77;;;8.90;99.90;;;;;;6193911;23;20463;-88
2021/05/07 00:26:07;;;;;;;14.67;13.17;;;8.90;99.90;;;;;;6169286;23;20409;-88
2021/05/07 00:29:07;;;;;;;15.73;14.13;;;8.90;99.90;;;;;;6175328;23;20422;-88
2021/05/07 00:31:38;;;;;;;14.27;12.77;;;8.90;99.90;;;;;;6171398;23;20409;-87
2021/05/07 00:34:17;;;;;;;14.30;12.97;;;9.00;99.90;;;;;;6170585;23;20432;-86
2021/05/07 00:37:12;;;;;;;14.43;13.00;;;9.00;99.90;;;;;;6193689;23;20481;-88
2021/05/07 00:40:01;;;;;;;15.90;14.30;;;9.00;99.90;;;;;;6167960;23;20901;-87
2021/05/07 00:42:43;;;;;;;16.10;14.50;;;8.90;99.90;;;;;;6169742;23;20442;-89
2021/05/07 00:45:29;;;;;;;14.80;13.40;;;8.90;99.90;;;;;;6163778;23;20401;-89
2021/05/07 00:48:00;;;;;;;16.07;14.07;;;8.90;99.90;;;;;;6202764;23;20449;-89
2021/05/07 00:51:01;;;;;;;16.20;14.70;;;9.00;99.90;;;;;;6195492;23;20441;-87
2021/05/07 00:53:48;;;;;;;16.30;14.70;;;9.00;99.90;;;;;;6166921;23;20975;-87
2021/05/07 00:56:49;;;;;;;16.77;15.17;;;9.00;99.90;;;;;;6167219;23;20469;-87
2021/05/07 00:59:29;;;;;;;16.43;14.80;;;8.90;99.90;;;;;;6193749;23;20501;-87
2021/05/07 01:02:06;;;;;;;15.53;14.03;;;8.90;99.90;;;;;;6194278;23;20434;-87
2021/05/07 01:04:57;;;;;;;15.17;13.77;;;8.90;99.90;;;;;;6192760;23;20449;-85
2021/05/07 01:07:40;;;;;;;15.07;13.60;;;8.80;99.90;;;;;;6168537;23;20406;-89
2021/05/07 01:10:27;;;;;;;16.43;14.83;;;8.80;99.90;;;;;;6189373;23;20438;-88
2021/05/07 01:13:11;;;;;;;15.27;13.87;;;8.90;99.90;;;;;;6164138;23;20777;-86
2021/05/07 01:16:15;;;;;;;14.10;12.77;;;8.90;99.90;;;;;;6166055;23;21293;-88
2021/05/07 01:18:57;;;;;;;15.83;14.20;;;8.80;99.90;;;;;;6166673;23;20900;-87
2021/05/07 01:21:28;;;;;;;14.73;13.20;;;8.90;99.90;;;;;;6165840;23;20471;-88
2021/05/07 01:24:20;;;;;;;15.20;13.70;;;8.80;99.90;;;;;;6168914;23;20536;-87
2021/05/07 01:27:09;;;;;;;15.50;13.67;;;8.80;99.90;;;;;;6167712;23;20425;-87
2021/05/07 01:29:41;;;;;;;16.83;14.73;;;8.80;99.90;;;;;;6163924;23;20773;-87
2021/05/07 01:32:08;;;;;;;15.23;13.80;;;8.70;99.90;;;;;;6189010;23;20417;-86
2021/05/07 01:34:50;;;;;;;14.80;13.20;;;8.80;99.90;;;;;;6189380;23;20781;-86
2021/05/07 01:37:28;;;;;;;14.53;13.13;;;8.80;99.90;;;;;;6166908;23;20478;-88
2021/05/07 01:40:13;;;;;;;14.30;12.83;;;8.90;99.90;;;;;;6191018;23;20816;-88
2021/05/07 01:42:54;;;;;;;15.67;14.20;;;8.90;99.90;;;;;;6192380;23;20480;-89
2021/05/07 01:45:37;;;;;;;15.03;13.63;;;9.10;99.90;;;;;;6189941;23;20409;-88
2021/05/07 01:48:21;;;;;;;14.70;13.20;;;9.20;99.90;;;;;;6167731;23;20421;-87
2021/05/07 01:50:57;;;;;;;15.00;13.50;;;9.30;99.90;;;;;;6162823;23;20442;-86
2021/05/07 01:53:59;;;;;;;14.43;12.70;;;9.20;99.90;;;;;;6191637;23;20662;-87
2021/05/07 01:56:43;;;;;;;15.17;13.70;;;9.10;99.90;;;;;;6164446;23;20412;-87
2021/05/07 01:59:13;;;;;;;14.80;13.20;;;8.90;99.90;;;;;;6191593;23;20969;-87
2021/05/07 02:01:42;;;;;;;14.13;12.70;;;9.00;99.90;;;;;;6169085;23;20417;-89
2021/05/07 02:04:12;;;;;;;15.13;13.63;;;8.90;99.90;;;;;;6181668;23;20545;-88
2021/05/07 02:06:41;;;;;;;14.37;12.90;;;8.90;99.90;;;;;;6190759;23;20449;-86
2021/05/07 02:09:11;;;;;;;14.93;12.67;;;8.90;99.90;;;;;;6186854;23;20425;-86
2021/05/07 02:11:56;;;;;;;15.00;13.40;;;8.80;99.90;;;;;;6188199;23;20409;-87
2021/05/07 02:14:23;;;;;;;15.80;14.13;;;8.90;99.90;;;;;;6161699;23;20422;-87
2021/05/07 02:16:50;;;;;;;16.83;15.03;;;8.80;99.90;;;;;;6188978;23;20956;-87
2021/05/07 02:19:24;;;;;;;14.87;13.37;;;8.80;99.90;;;;;;6185284;23;20437;-87
2021/05/07 02:21:59;;;;;;;16.03;14.33;;;8.80;99.90;;;;;;6184480;23;20444;-85
2021/05/07 02:24:35;;;;;;;15.77;14.20;;;8.70;99.90;;;;;;6168424;23;20460;-89
2021/05/07 02:27:12;;;;;;;14.00;12.60;;;8.80;99.90;;;;;;6206786;23;20424;-88
2021/05/07 02:29:47;;;;;;;16.83;15.13;;;8.70;99.90;;;;;;6182028;23;20425;-88
2021/05/07 02:32:16;;;;;;;16.97;15.23;;;8.70;99.90;;;;;;6181937;23;20397;-90
2021/05/07 02:34:53;;;;;;;17.20;15.40;;;8.60;99.90;;;;;;6181576;23;20406;-90
2021/05/07 02:37:32;;;;;;;18.03;15.20;;;8.50;99.90;;;;;;6182696;23;20417;-90
2021/05/07 02:40:17;;;;;;;20.00;16.03;;;8.60;99.90;;;;;;6182214;23;20469;-89
2021/05/07 02:42:47;;;;;;;18.30;16.43;;;8.60;99.90;;;;;;6182254;23;20536;-90
2021/05/07 02:45:28;;;;;;;17.93;16.07;;;8.60;99.90;;;;;;6175928;23;20414;-88
2021/05/07 02:47:57;;;;;;;17.73;15.70;;;8.60;99.90;;;;;;6165119;23;20412;-87
2021/05/07 02:50:37;;;;;;;20.10;17.90;;;8.60;99.90;;;;;;6191852;23;20830;-88
2021/05/07 02:53:13;;;;;;;18.83;16.83;;;8.50;99.90;;;;;;6160574;23;20433;-86
2021/05/07 02:55:48;;;;;;;19.40;16.97;;;8.50;99.90;;;;;;6161466;23;20412;-87
2021/05/07 02:58:19;;;;;;;21.90;16.83;;;8.50;99.90;;;;;;6159031;23;20420;-87
2021/05/07 03:01:03;;;;;;;23.60;18.43;;;8.40;99.90;;;;;;6163439;23;20430;-86
2021/05/07 03:03:33;;;;;;;19.57;17.20;;;8.40;99.90;;;;;;6162527;23;21237;-87
2021/05/07 03:06:12;;;;;;;20.17;17.97;;;8.40;99.90;;;;;;6160226;23;20433;-87
2021/05/07 03:08:47;;;;;;;20.33;17.43;;;8.30;99.90;;;;;;6161900;23;20491;-88
2021/05/07 03:11:27;;;;;;;22.37;19.50;;;8.30;99.90;;;;;;6163963;23;20407;-86
2021/05/07 03:13:56;;;;;;;21.70;18.60;;;8.30;99.90;;;;;;6187450;23;20407;-85
2021/05/07 03:16:30;;;;;;;22.97;18.00;;;8.30;99.90;;;;;;6162595;23;21034;-87
2021/05/07 03:19:03;;;;;;;23.17;20.27;;;8.30;99.90;;;;;;6164934;23;20438;-87
2021/05/07 03:21:41;;;;;;;23.40;19.20;;;8.20;99.90;;;;;;6166581;23;20421;-86
2021/05/07 03:24:13;;;;;;;24.20;19.97;;;8.20;99.90;;;;;;6165224;23;20430;-86
2021/05/07 03:26:45;;;;;;;21.03;18.07;;;8.10;99.90;;;;;;6167937;23;20465;-87
2021/05/07 03:29:35;;;;;;;26.53;20.07;;;8.10;99.90;;;;;;6190670;23;20522;-87
2021/05/07 03:32:16;;;;;;;24.67;21.20;;;8.20;99.90;;;;;;6167598;23;20413;-86
2021/05/07 03:34:49;;;;;;;24.17;21.27;;;8.10;99.90;;;;;;6166007;23;20423;-86
2021/05/07 03:37:18;;;;;;;23.37;19.83;;;8.20;99.90;;;;;;6166804;23;20411;-87
2021/05/07 03:39:56;;;;;;;22.57;19.53;;;8.20;99.90;;;;;;6167802;23;20448;-86
2021/05/07 03:42:31;;;;;;;26.57;21.37;;;8.20;99.90;;;;;;6167637;23;20434;-87
2021/05/07 03:45:22;;;;;;;21.93;19.50;;;8.10;99.90;;;;;;6168122;23;20399;-85
2021/05/07 03:47:56;;;;;;;25.03;21.90;;;8.10;99.90;;;;;;6193690;23;20438;-85
2021/05/07 03:50:30;;;;;;;29.60;21.30;;;8.10;99.90;;;;;;6168216;23;20435;-86
2021/05/07 03:53:00;;;;;;;25.03;22.33;;;8.10;99.90;;;;;;6194762;23;20425;-88
2021/05/07 03:55:27;;;;;;;25.80;21.53;;;8.10;99.90;;;;;;6172040;23;20616;-86
2021/05/07 03:58:00;;;;;;;24.90;21.07;;;8.10;99.90;;;;;;6175209;23;20732;-86
2021/05/07 04:06:16;;;;;;;27.33;22.13;;;8.10;99.90;;;;;;6236993;22;20447;-87
2021/05/07 04:09:09;;;;;;;24.50;20.53;;;8.00;99.90;;;;;;6255505;23;20419;-90
2021/05/07 04:14:19;;;;;;;26.03;20.40;;;8.10;99.90;;;;;;6216997;22;20484;-90
2021/05/07 04:17:03;;;;;;;26.57;21.47;;;8.00;99.90;;;;;;6232177;22;20405;-87
2021/05/07 04:20:00;;;;;;;26.07;20.80;;;8.00;99.90;;;;;;6241582;22;20420;-89
2021/05/07 04:22:37;;;;;;;30.27;22.70;;;8.00;99.90;;;;;;6238105;22;20480;-86
2021/05/07 04:25:10;;;;;;;23.07;20.57;;;8.00;99.90;;;;;;6231783;23;20476;-87
2021/05/07 04:27:53;;;;;;;28.23;21.90;;;8.00;99.90;;;;;;6230415;23;20427;-86
2021/05/07 04:30:29;;;;;;;23.97;20.77;;;8.00;99.90;;;;;;6231714;23;20424;-87
2021/05/07 04:33:06;;;;;;;24.40;20.33;;;8.00;99.90;;;;;;6208267;23;20453;-86
2021/05/07 04:35:47;;;;;;;24.00;20.80;;;8.00;99.90;;;;;;6232912;23;20401;-85
2021/05/07 04:38:24;;;;;;;25.40;20.17;;;8.10;99.90;;;;;;6233031;23;20399;-88
2021/05/07 04:40:51;;;;;;;24.53;20.30;;;8.00;99.90;;;;;;6242406;22;20416;-90
2021/05/07 04:43:20;;;;;;;22.03;19.50;;;8.10;99.90;;;;;;6232415;23;20440;-85
2021/05/07 04:45:50;;;;;;;25.40;21.17;;;8.00;99.90;;;;;;6203568;23;20427;-87
2021/05/07 04:48:29;;;;;;;23.17;20.20;;;8.00;99.90;;;;;;6230998;23;20401;-89
2021/05/07 04:51:01;;;;;;;23.57;20.20;;;8.10;99.90;;;;;;6231788;23;20433;-87
2021/05/07 04:53:30;;;;;;;24.03;19.47;;;8.00;99.90;;;;;;6205552;23;20416;-87
2021/05/07 04:56:00;;;;;;;23.97;19.37;;;8.10;99.90;;;;;;6205310;23;20409;-87
2021/05/07 04:58:34;;;;;;;24.60;19.57;;;8.10;99.90;;;;;;6228855;23;20417;-87
2021/05/07 05:01:12;;;;;;;25.23;19.93;;;8.00;99.90;;;;;;6231231;23;20409;-87
2021/05/07 05:03:49;;;;;;;24.50;20.87;;;8.00;99.90;;;;;;6229715;23;20448;-87
2021/05/07 05:06:18;;;;;;;25.27;19.57;;;8.10;99.90;;;;;;6209452;23;20405;-88
2021/05/07 05:08:56;;;;;;;24.07;20.80;;;8.20;99.90;;;;;;6238234;23;20416;-89
2021/05/07 05:11:31;;;;;;;26.70;20.53;;;8.30;99.90;;;;;;6240485;23;20392;-89
2021/05/07 05:14:19;;;;;;;27.43;20.83;;;8.60;99.90;;;;;;6233311;23;20417;-86
2021/05/07 05:16:52;;;;;;;27.20;20.30;;;8.70;99.90;;;;;;6230561;23;20405;-88
2021/05/07 05:19:25;;;;;;;28.07;19.90;;;8.50;99.90;;;;;;6238535;23;20425;-89
2021/05/07 05:22:04;;;;;;;29.13;22.07;;;8.80;99.90;;;;;;6231210;23;20420;-87
2021/05/07 05:24:50;;;;;;;29.40;22.30;;;8.80;99.90;;;;;;6223475;23;20437;-86
2021/05/07 05:27:19;;;;;;;30.30;21.70;;;8.80;99.90;;;;;;6228459;23;20427;-85
2021/05/07 05:29:49;;;;;;;28.30;22.30;;;8.80;99.90;;;;;;6229384;23;20433;-85
2021/05/07 05:32:16;;;;;;;33.47;23.63;;;8.90;99.90;;;;;;6229895;23;20728;-86
2021/05/07 05:34:54;;;;;;;33.10;23.50;;;8.90;99.90;;;;;;6227448;23;20421;-88
2021/05/07 05:37:26;;;;;;;31.97;24.53;;;8.80;99.90;;;;;;6228546;23;20488;-88
2021/05/07 05:40:13;;;;;;;27.50;20.87;;;8.50;99.90;;;;;;6229215;23;20435;-87
2021/05/07 05:42:49;;;;;;;28.20;22.40;;;9.00;99.90;;;;;;6227787;23;20409;-87
2021/05/07 05:45:22;;;;;;;30.40;23.37;;;9.10;99.90;;;;;;6227999;23;20458;-86
2021/05/07 05:50:26;;;;;;;29.60;22.60;;;9.00;99.90;;;;;;6207413;22;20480;-89
2021/05/07 05:52:58;;;;;;;28.33;22.07;;;9.20;99.90;;;;;;6176594;23;20430;-88
2021/05/07 05:55:27;;;;;;;30.50;22.97;;;9.40;99.90;;;;;;6175805;23;20429;-86
2021/05/07 05:57:57;;;;;;;28.93;23.20;;;9.40;99.90;;;;;;6175322;23;20406;-86
2021/05/07 06:00:28;;;;;;;28.83;21.53;;;9.40;99.90;;;;;;6176358;23;20418;-85
2021/05/07 06:03:07;;;;;;;29.73;20.97;;;9.40;99.90;;;;;;6182225;23;20468;-89
2021/05/07 06:05:52;;;;;;;29.30;21.80;;;9.40;99.90;;;;;;6203399;23;20432;-87
2021/05/07 06:08:22;;;;;;;29.27;22.87;;;8.90;99.90;;;;;;6199851;23;20420;-86
2021/05/07 06:10:50;;;;;;;26.70;21.67;;;9.00;99.90;;;;;;6199744;23;20480;-86
2021/05/07 06:13:22;;;;;;;29.00;21.97;;;9.00;99.90;;;;;;6197606;23;20505;-84
2021/05/07 06:15:53;;;;;;;31.13;22.30;;;8.70;99.90;;;;;;6179010;23;20436;-89
2021/05/07 06:18:26;;;;;;;31.20;23.20;;;8.90;99.90;;;;;;6187276;23;20404;-89
2021/05/07 06:21:02;;;;;;;27.00;21.17;;;8.70;99.90;;;;;;6187307;23;20531;-89
2021/05/07 06:23:34;;;;;;;31.70;22.67;;;8.50;99.90;;;;;;6186400;23;20488;-90
2021/05/07 06:26:07;;;;;;;26.33;19.80;;;8.50;99.90;;;;;;6211435;23;20409;-89
2021/05/07 06:28:49;;;;;;;28.57;22.30;;;8.50;99.90;;;;;;6204294;23;20448;-90
2021/05/07 06:31:27;;;;;;;27.73;21.27;;;8.50;99.90;;;;;;6237780;23;20427;-89
2021/05/07 06:33:58;;;;;;;26.60;21.20;;;8.40;99.90;;;;;;6240611;23;20541;-87
2021/05/07 06:37:03;;;;;;;28.03;21.03;;;8.40;99.90;;;;;;6237989;23;20464;-87
2021/05/07 06:40:06;;;;;;;26.30;19.27;;;8.40;99.90;;;;;;6218141;23;20464;-87
2021/05/07 06:42:49;;;;;;;22.17;17.87;;;8.50;99.90;;;;;;6192283;23;20412;-87
2021/05/07 06:45:29;;;;;;;19.53;14.50;;;8.40;99.90;;;;;;6252391;23;20401;-87
2021/05/07 06:48:12;;;;;;;12.90;10.70;;;8.50;99.90;;;;;;6256131;23;20491;-87
2021/05/07 06:50:42;;;;;;;12.53;10.80;;;8.30;99.90;;;;;;6255505;22;20499;-88
2021/05/07 06:53:13;;;;;;;14.97;10.93;;;8.20;99.90;;;;;;6234128;23;20409;-87
2021/05/07 06:56:14;;;;;;;12.47;10.77;;;8.30;99.90;;;;;;6256843;23;20437;-87
2021/05/07 06:59:29;;;;;;;12.53;10.70;;;8.30;99.90;;;;;;6248000;23;20490;-87
2021/05/07 07:02:03;;;;;;;17.20;14.07;;;8.20;99.90;;;;;;6230849;23;20421;-86
2021/05/07 07:04:45;;;;;;;12.53;11.33;;;8.40;99.90;;;;;;6226705;23;20443;-87
2021/05/07 07:07:41;;;;;;;12.60;11.30;;;8.30;99.90;;;;;;6227334;23;20389;-85
2021/05/07 07:10:27;;;;;;;13.23;11.83;;;8.20;99.90;;;;;;6248081;22;20511;-84
2021/05/07 07:13:29;;;;;;;14.73;11.97;;;8.20;99.90;;;;;;6226329;23;20392;-87
2021/05/07 07:16:00;;;;;;;15.00;12.30;;;8.70;99.90;;;;;;6247611;23;20436;-88
2021/05/07 07:18:50;;;;;;;13.77;12.20;;;8.80;99.90;;;;;;6246946;23;20483;-85
2021/05/07 07:21:28;;;;;;;17.30;13.03;;;8.70;99.90;;;;;;6254584;23;20718;-87
2021/05/07 07:24:05;;;;;;;14.47;12.60;;;8.70;99.90;;;;;;6230417;23;20471;-87
2021/05/07 07:26:50;;;;;;;17.60;14.77;;;9.10;99.90;;;;;;6253248;23;20397;-86
2021/05/07 07:29:37;;;;;;;19.67;15.03;;;9.30;99.90;;;;;;6250054;22;20412;-85
2021/05/07 07:32:19;;;;;;;17.30;14.87;;;9.30;99.90;;;;;;6229804;23;20425;-86
2021/05/07 07:36:12;;;;;;;20.67;16.57;;;9.20;99.90;;;;;;6228730;23;20412;-86
2021/05/07 07:38:51;;;;;;;21.90;17.30;;;9.20;99.90;;;;;;6135011;23;20419;-86
2021/05/07 07:41:30;;;;;;;20.33;17.00;;;9.40;99.90;;;;;;6253464;23;20407;-87
2021/05/07 07:44:12;;;;;;;19.20;15.13;;;9.30;99.90;;;;;;6251185;23;20516;-88
2021/05/07 07:46:40;;;;;;;18.27;16.00;;;9.60;99.90;;;;;;6253575;23;20899;-86
2021/05/07 07:49:21;;;;;;;17.00;14.67;;;9.70;99.90;;;;;;6227850;23;20437;-87
2021/05/07 07:52:09;;;;;;;16.80;14.33;;;9.60;99.90;;;;;;6224800;23;20865;-88
2021/05/07 07:54:38;;;;;;;20.60;16.03;;;9.90;99.90;;;;;;6251212;23;20413;-89
2021/05/07 07:57:13;;;;;;;16.83;14.97;;;10.00;98.80;;;;;;6254202;23;20417;-88
2021/05/07 07:59:52;;;;;;;19.80;15.90;;;9.90;99.70;;;;;;6252292;22;20504;-88
2021/05/07 08:02:31;;;;;;;16.50;13.90;;;9.60;99.90;;;;;;6255072;23;20420;-88
2021/05/07 08:05:13;;;;;;;17.80;14.90;;;9.40;99.90;;;;;;6232768;23;20483;-87
2021/05/07 08:07:56;;;;;;;16.07;13.80;;;9.40;99.90;;;;;;6231802;23;20412;-86
2021/05/07 08:10:56;;;;;;;12.17;10.80;;;9.20;99.90;;;;;;6247277;22;20482;-85
2021/05/07 08:13:38;;;;;;;14.83;10.90;;;9.00;99.90;;;;;;6248860;22;20483;-87
2021/05/07 08:16:19;;;;;;;8.23;6.27;;;8.80;99.90;;;;;;6219242;23;20495;-87
2021/05/07 08:19:23;;;;;;;6.17;3.70;;;8.50;99.90;;;;;;6215947;23;20490;-86
2021/05/07 08:22:16;;;;;;;;;;;;;;;;;;;;;
2021/05/07 08:25:21;;;;;;;5.00;4.47;;;7.90;99.90;;;;;;6214389;23;20503;-85
2021/05/07 08:28:01;;;;;;;7.60;4.60;;;7.70;99.90;;;;;;6253893;23;20405;-87
2021/05/07 08:30:38;;;;;;;4.67;4.27;;;7.70;99.90;;;;;;6265116;22;20442;-91
2021/05/07 08:33:32;;;;;;;5.23;4.73;;;7.70;99.90;;;;;;6250170;23;20411;-86
2021/05/07 08:36:47;;;;;;;5.93;5.20;;;7.80;99.90;;;;;;6261767;22;20415;-89
2021/05/07 08:40:05;;;;;;;5.83;5.33;;;7.80;99.90;;;;;;6255969;22;20431;-85
2021/05/07 08:42:59;;;;;;;5.77;5.27;;;8.20;99.90;;;;;;6236905;23;20957;-88
2021/05/07 08:50:04;;;;;;;;;;;;;;;;;;;;;
2021/05/07 08:53:20;;;;;;;6.37;5.87;;;8.60;99.90;;;;;;6246574;23;20400;-89
2021/05/07 09:00:00;;;;;;;5.57;5.17;;;8.80;99.90;;;;;;6164613;23;20531;-87
2021/05/07 09:03:20;;;;;;;;;;;;;;;;;;;;;
2021/05/07 09:07:08;;;;;;;4.70;4.30;;;8.90;99.90;;;;;;6217909;23;20417;-86
2021/05/07 09:10:21;;;;;;;5.10;4.60;;;9.20;99.90;;;;;;6200916;23;20502;-86
2021/05/07 09:13:35;;;;;;;;;;;;;;;;;;;;;
2021/05/07 09:16:31;;;;;;;5.30;4.80;;;9.40;99.20;;;;;;6109477;23;20415;-85
2021/05/07 09:34:09;;;;;;;3.80;3.50;;;13.00;92.60;;;;;;6223856;23;20446;-89
2021/05/07 09:37:30;;;;;;;3.97;3.67;;;14.00;87.30;;;;;;6168926;23;20555;-85
2021/05/07 09:44:23;;;;;;;5.30;4.90;;;12.90;88.80;;;;;;6051179;23;20862;-88
2021/05/07 09:47:36;;;;;;;4.87;4.57;;;12.30;90.10;;;;;;6093243;23;20407;-84
2021/05/07 09:51:05;;;;;;;6.73;6.13;;;11.90;91.40;;;;;;5896400;24;20471;-88
2021/05/07 09:54:40;;;;;;;5.60;5.20;;;12.50;90.80;;;;;;5942720;24;20459;-88
2021/05/07 09:58:00;;;;;;;;;;;;;;;;;;;;;
2021/05/07 10:01:10;;;;;;;5.63;5.23;;;11.40;92.10;;;;;;6087778;23;20421;-85
2021/05/07 10:04:01;;;;;;;5.30;4.90;;;11.00;93.10;;;;;;6218633;23;20510;-88
2021/05/07 10:06:29;;;;;;;5.40;5.00;;;10.50;93.50;;;;;;6236228;23;20393;-88
2021/05/07 10:09:32;;;;;;;5.57;5.07;;;10.60;94.70;;;;;;6235503;23;20412;-84
2021/05/07 10:13:09;;;;;;;5.30;4.80;;;11.50;93.20;;;;;;6231454;23;20443;-89
2021/05/07 10:20:00;;;;;;;5.90;5.20;;;12.30;88.80;;;;;;6213651;23;20429;-84
2021/05/07 10:22:52;;;;;;;7.17;5.27;;;12.00;88.30;;;;;;6207665;23;20420;-90
2021/05/07 10:25:26;;;;;;;5.87;5.23;;;11.80;89.50;;;;;;6234294;23;20440;-88
2021/05/07 10:28:23;;;;;;;3.30;3.03;;;13.30;87.50;;;;;;6236540;23;20397;-88
2021/05/07 10:35:37;;;;;;;;;;;;;;;;;;;;;
2021/05/07 10:38:56;;;;;;;3.17;2.37;;;14.70;73.80;;;;;;6177596;23;20397;-85
2021/05/07 10:46:12;;;;;;;2.50;2.30;;;14.00;68.40;;;;;;6217107;23;20443;-86
2021/05/07 10:49:36;;;;;;;2.10;2.00;;;13.80;72.40;;;;;;6128524;23;20552;-85
2021/05/07 10:52:27;;;;;;;2.43;1.70;;;14.90;68.40;;;;;;6175941;23;20416;-87
2021/05/07 10:55:31;;;;;;;;;;;;;;;;;;;;;
2021/05/07 10:58:48;;;;;;;1.97;1.70;;;15.90;60.50;;;;;;6217235;23;20413;-86
2021/05/07 11:02:03;;;;;;;1.87;1.77;;;16.50;58.10;;;;;;6196181;23;20389;-87
2021/05/07 11:05:43;;;;;;;;;;;;;;;;;;;;;
2021/05/07 11:08:15;;;;;;;2.10;1.90;;;14.60;59.90;;;;;;6211685;23;20488;-86
2021/05/07 11:11:38;;;;;;;2.37;2.00;;;14.30;61.40;;;;;;6222063;23;20432;-87
2021/05/07 11:14:33;;;;;;;2.00;1.90;;;13.70;63.50;;;;;;6208767;23;20413;-87
2021/05/07 11:18:03;;;;;;;2.40;1.87;;;13.40;66.70;;;;;;6228013;23;20419;-89
2021/05/07 11:21:42;;;;;;;;;;;;;;;;;;;;;
2021/05/07 11:29:09;;;;;;;1.50;1.40;;;13.60;61.70;;;;;;6136763;23;20400;-89
2021/05/07 11:32:19;;;;;;;2.63;2.20;;;13.50;61.60;;;;;;6049335;23;20479;-86
2021/05/07 11:35:41;;;;;;;2.10;1.90;;;13.20;63.30;;;;;;5964071;24;20927;-88
2021/05/07 11:38:39;;;;;;;2.27;1.90;;;12.70;66.40;;;;;;5956494;24;20449;-86
2021/05/07 11:41:57;;;;;;;2.47;2.23;;;12.90;66.00;;;;;;6187092;23;20475;-87
2021/05/07 11:45:38;;;;;;;2.87;2.63;;;13.40;65.30;;;;;;6041539;23;20486;-84
2021/05/07 11:49:13;;;;;;;3.30;2.27;;;13.70;64.40;;;;;;6133977;23;20433;-85
2021/05/07 11:52:45;;;;;;;4.10;2.40;;;14.60;61.90;;;;;;6069859;23;20912;-85
2021/05/07 11:55:55;;;;;;;2.97;2.00;;;14.50;58.50;;;;;;6069305;23;20376;-87
2021/05/07 11:59:49;;;;;;;1.83;1.60;;;14.20;58.30;;;;;;6067142;23;20401;-85
2021/05/07 12:03:17;;;;;;;4.67;1.90;;;14.90;57.60;;;;;;5955644;24;20476;-86
2021/05/07 12:20:56;;;;;;;5.90;3.97;;;13.70;59.20;;;;;;5925733;24;20418;-86
2021/05/07 12:24:24;;;;;;;4.23;3.60;;;13.40;60.60;;;;;;5928169;24;20530;-86
2021/05/07 12:27:19;;;;;;;2.90;2.60;;;13.40;61.70;;;;;;5943454;24;20455;-87
2021/05/07 12:30:17;;;;;;;2.43;2.27;;;13.70;60.80;;;;;;5982159;23;20515;-88
2021/05/07 12:37:48;;;;;;;;;;;;;;;;;;;;;
2021/05/07 12:40:48;;;;;;;2.53;2.43;;;14.20;57.90;;;;;;5912784;24;20474;-83
2021/05/07 12:47:19;;;;;;;4.47;2.80;;;14.60;55.90;;;;;;5943400;24;20426;-86
2021/05/07 12:55:42;;;;;;;2.90;2.70;;;14.30;57.80;;;;;;6214947;23;20455;-86
2021/05/07 12:58:33;;;;;;;3.50;3.20;;;14.50;58.60;;;;;;6167020;23;20436;-87
2021/05/07 13:05:33;;;;;;;3.70;3.40;;;15.10;54.90;;;;;;6181379;23;20449;-86
2021/05/07 13:09:08;;;;;;;2.70;2.50;;;15.80;53.80;;;;;;6099070;23;20408;-87
2021/05/07 13:12:12;;;;;;;3.30;3.03;;;15.90;53.90;;;;;;6151540;23;20390;-89
2021/05/07 13:16:19;;;;;;;3.40;3.20;;;15.70;52.80;;;;;;6068219;23;20906;-84
2021/05/07 13:25:35;;;;;;;3.47;2.90;;;14.90;54.40;;;;;;6210526;23;20463;-85
2021/05/07 13:33:08;;;;;;;3.90;3.57;;;14.90;55.00;;;;;;6064335;23;20421;-84
2021/05/07 13:36:06;;;;;;;3.50;3.20;;;15.20;53.70;;;;;;6134214;23;21118;-85
2021/05/07 13:39:31;;;;;;;3.50;3.20;;;14.90;53.30;;;;;;6144755;23;20513;-84
2021/05/07 13:46:01;;;;;;;3.17;2.97;;;14.80;54.70;;;;;;6088819;23;20583;-85
2021/05/07 14:22:52;;;;;;;4.93;4.43;;;15.10;49.40;;;;;;5910291;24;20933;-84
2021/05/07 14:26:02;;;;;;;;;;;;;;;;;;;;;
2021/05/07 14:29:21;;;;;;;5.30;4.80;;;15.10;49.30;;;;;;5904282;24;20429;-81
2021/05/07 14:35:42;;;;;;;4.60;4.30;;;15.20;48.50;;;;;;5995813;23;20439;-83
2021/05/07 14:39:05;;;;;;;4.43;4.03;;;15.10;47.50;;;;;;6010044;23;20603;-84
2021/05/07 14:42:38;;;;;;;5.30;4.90;;;14.90;49.00;;;;;;6116875;23;20398;-86
2021/05/07 14:45:55;;;;;;;5.23;4.73;;;14.70;48.30;;;;;;6035150;23;20439;-85
2021/05/07 14:53:40;;;;;;;5.40;4.90;;;14.70;49.10;;;;;;5968019;23;20417;-89
2021/05/07 14:59:51;;;;;;;5.30;4.90;;;15.00;48.80;;;;;;5895714;24;20418;-86
2021/05/07 15:03:09;;;;;;;6.50;5.90;;;15.20;48.40;;;;;;5932409;24;20438;-84
2021/05/07 15:06:47;;;;;;;5.37;4.97;;;15.30;48.30;;;;;;5918811;23;20407;-85
2021/05/07 15:10:10;;;;;;;4.13;3.80;;;15.30;48.00;;;;;;5962986;24;20416;-86
2021/05/07 15:13:23;;;;;;;4.17;3.87;;;15.20;48.20;;;;;;6004058;23;20382;-85
2021/05/07 15:16:19;;;;;;;;;;;;;;;;;;;;;
2021/05/07 15:19:41;;;;;;;4.17;3.87;;;15.00;48.00;;;;;;5992699;23;20426;-87
2021/05/07 15:23:09;;;;;;;4.77;4.37;;;14.80;46.70;;;;;;6010510;23;20956;-85
2021/05/07 15:26:47;;;;;;;;;;;;;;;;;;;;;
2021/05/07 15:30:32;;;;;;;4.23;3.93;;;14.80;48.20;;;;;;5970281;24;20439;-88
2021/05/07 15:33:45;;;;;;;4.50;3.90;;;14.80;47.80;;;;;;6016519;23;20394;-85
2021/05/07 15:37:14;;;;;;;8.87;3.70;;;14.70;47.70;;;;;;6025623;23;20401;-84
2021/05/07 15:47:40;;;;;;;;;;;;;;;;;;;;;
2021/05/07 15:53:49;;;;;;;5.03;4.63;;;15.30;46.40;;;;;;6225021;23;20393;-87
2021/05/07 16:03:46;;;;;;;4.40;4.00;;;15.10;47.20;;;;;;6219223;23;20408;-85
2021/05/07 16:07:17;;;;;;;;;;;;;;;;;;;;;
2021/05/07 16:10:35;;;;;;;4.93;3.70;;;15.10;45.40;;;;;;6233520;23;20428;-87
2021/05/07 16:13:54;;;;;;;;;;;;;;;;;;;;;
2021/05/07 16:16:31;;;;;;;4.73;4.23;;;15.10;46.00;;;;;;6236185;23;20447;-87
2021/05/07 16:19:10;;;;;;;4.37;4.07;;;15.00;46.00;;;;;;6211650;23;20427;-88
2021/05/07 16:22:08;;;;;;;4.23;3.93;;;15.00;46.30;;;;;;6232289;23;20487;-88
2021/05/07 16:25:28;;;;;;;;;;;;;;;;;;;;;
2021/05/07 16:31:22;;;;;;;5.97;4.53;;;15.00;47.50;;;;;;6207702;23;20452;-85
2021/05/07 16:34:10;;;;;;;5.10;4.67;;;15.20;47.20;;;;;;6247564;23;20432;-87
2021/05/07 16:37:23;;;;;;;4.60;4.30;;;15.10;46.90;;;;;;6169744;23;20416;-86
2021/05/07 16:41:27;;;;;;;5.60;5.10;;;15.20;47.40;;;;;;6171101;23;20425;-86
2021/05/07 16:44:47;;;;;;;6.00;5.50;;;15.00;47.30;;;;;;6152074;23;20446;-85
2021/05/07 16:48:07;;;;;;;7.90;7.20;;;15.60;47.30;;;;;;6195008;23;21493;-85
2021/05/07 16:54:41;;;;;;;7.70;6.93;;;15.10;47.50;;;;;;6217877;23;20450;-86
2021/05/07 17:01:10;;;;;;;;;;;;;;;;;;;;;
2021/05/07 17:04:18;;;;;;;6.10;5.70;;;15.10;48.00;;;;;;6215099;23;20440;-86
2021/05/07 17:07:26;;;;;;;8.17;7.40;;;14.90;47.60;;;;;;6225244;23;20513;-85
2021/05/07 17:10:35;;;;;;;8.53;7.53;;;14.80;48.00;;;;;;6107051;23;20436;-84
2021/05/07 17:13:31;;;;;;;6.10;5.50;;;14.70;48.50;;;;;;6068303;23;20437;-86
2021/05/07 17:16:55;;;;;;;;;;;;;;;;;;;;;
2021/05/07 17:20:15;;;;;;;6.90;6.40;;;14.80;49.40;;;;;;5963646;23;20441;-85
2021/05/07 17:23:08;;;;;;;6.50;5.90;;;14.80;48.60;;;;;;5990990;23;20428;-85
2021/05/07 17:25:52;;;;;;;;;;;;;;;;;;;;;
2021/05/07 17:34:30;;;;;;;11.00;10.00;;;14.70;48.70;;;;;;6232243;23;20542;-87
2021/05/07 17:37:01;;;;;;;25.47;22.97;;;14.60;49.30;;;;;;6226635;23;20413;-87
2021/05/07 17:43:02;;;;;;;6.63;6.13;;;14.50;49.90;;;;;;6217738;23;20415;-85
2021/05/07 17:46:03;;;;;;;12.20;10.90;;;14.50;50.30;;;;;;6219837;23;20971;-84
2021/05/07 17:52:30;;;;;;;10.80;9.50;;;14.40;50.60;;;;;;6238035;23;20440;-86
2021/05/07 17:55:32;;;;;;;;;;;;;;;;;;;;;
2021/05/07 17:58:48;;;;;;;5.50;5.00;;;14.50;50.70;;;;;;6233885;23;20401;-85
2021/05/07 18:02:00;;;;;;;7.73;6.00;;;14.60;50.70;;;;;;6219099;23;20427;-85
2021/05/07 18:05:23;;;;;;;10.53;9.53;;;14.50;50.70;;;;;;6134499;23;20791;-86
2021/05/07 18:08:09;;;;;;;7.40;6.67;;;14.40;51.10;;;;;;6063435;23;20722;-86
2021/05/07 18:11:35;;;;;;;7.47;6.73;;;14.40;51.00;;;;;;6104118;23;20436;-85
2021/05/07 18:14:42;;;;;;;6.97;6.30;;;14.30;51.00;;;;;;6017790;23;20403;-86
2021/05/07 18:21:23;;;;;;;8.83;8.00;;;14.30;51.00;;;;;;6000705;23;20512;-86
2021/05/07 18:24:56;;;;;;;6.13;5.53;;;14.30;51.40;;;;;;5990614;24;20502;-89
2021/05/07 18:28:07;;;;;;;6.17;5.63;;;14.40;52.50;;;;;;5990823;23;20412;-87